Ora Direzione Vento Velocita' Vento Media Vento Raffica Max. Temperatura Wind Chill Pioggia Pressione
13:05:12.0290 °(WNW)3.3 Kts3.13 Kts9.0 Kts30.6 °C33.15 °C0.0 mm1022.3 Hpa
12:43:33.0290 °(WNW)3.5 Kts3.53 Kts9.0 Kts30.1 °C32.58 °C0.0 mm1020.2 Hpa
12:24:11.0291 °(WNW)4.3 Kts4.5 Kts9.0 Kts29.0 °C31.32 °C0.0 mm1021.1 Hpa
12:04:32.0284 °(WNW)3.1 Kts2.73 Kts9.0 Kts28.7 °C30.97 °C0.0 mm1021.8 Hpa
11:44:50.0280 °(W)4.4 Kts5.23 Kts9.0 Kts28.8 °C31.09 °C0.0 mm1022.5 Hpa
11:23:15.0261 °(W)1.8 Kts1.63 Kts9.0 Kts29.2 °C31.52 °C0.0 mm1020.1 Hpa
11:03:54.0261 °(W)3.2 Kts3.36 Kts9.0 Kts28.7 °C30.97 °C0.0 mm1018.9 Hpa
10:44:06.0213 °(SSW)3.4 Kts3.43 Kts9.0 Kts29.2 °C31.54 °C0.0 mm1020.1 Hpa
10:24:32.0174 °(S)2.1 Kts3.56 Kts9.0 Kts28.2 °C30.41 °C0.0 mm1018.8 Hpa
10:04:53.00 °(N)6.0 Kts5.0 Kts9.0 Kts26.7 °C28.57 °C0.0 mm1020.0 Hpa
09:45:05.015 °(NNE)2.5 Kts2.0 Kts9.0 Kts26.1 °C28.05 °C0.0 mm1020.0 Hpa
09:23:26.00 °(N)2.7 Kts2.46 Kts7.6 Kts25.3 °C27.13 °C0.0 mm1018.8 Hpa
09:04:08.0323 °(NW)3.6 Kts4.1 Kts7.5 Kts25.2 °C26.94 °C0.0 mm1020.4 Hpa
08:44:32.00 °(N)1.5 Kts1.3 Kts7.5 Kts25.3 °C27.28 °C0.0 mm1019.3 Hpa
08:25:09.011 °(N)4.3 Kts4.3 Kts7.5 Kts24.7 °C26.28 °C0.0 mm1018.8 Hpa
08:03:43.00 °(N)5.4 Kts4.66 Kts7.5 Kts24.6 °C26.1 °C0.0 mm1017.6 Hpa
07:44:09.010 °(N)3.9 Kts3.06 Kts7.5 Kts24.2 °C25.74 °C0.0 mm1018.8 Hpa
07:25:04.00 °(N)5.4 Kts4.96 Kts6.2 Kts23.8 °C25.15 °C0.0 mm1020.4 Hpa
07:03:26.028 °(NNE)0.0 Kts0.0 Kts5.1 Kts23.3 °C27.6 °C0.0 mm1018.1 Hpa
06:44:07.00 °(N)0.0 Kts0.0 Kts5.1 Kts23.3 °C27.6 °C0.0 mm1018.1 Hpa